UAE9912 SEQM-TJBQ
Flight info
| Callsign | UAE9912 |
|---|---|
| Flight time | N/A |
| Altitude | 34000 |
| Route | ARNOK UP533 BOKAN UP778 CLO/N0482F360 UP778 RNG/N0481F370 UW26 CUC UW1 ENPUT UL342 PNA B892 ANTEX B520 BQN |
| Aircraft | B77L/H-SDE1E2E3FGHIJ2J3J4J5M1RWXY/LB1D1 |
Departure
| Time | 2026-04-30 09:06 |
|---|---|
| Airport | Mariscal Sucre International Airport (SEQM) |
Arrival
| Time | N/A |
|---|---|
| Airport | Rafael Hernández International Airport (TJBQ) |
| Time | Latitude | Longitude | Altitude | Speed | Heading |
|---|---|---|---|---|---|
| 2026-04-30 08:37 | -0.12962 | -78.35759 | 7850 ft | 0 kts | 268° |
| 2026-04-30 08:56 | -0.12961 | -78.35752 | 7850 ft | 2 kts | 268° |
| 2026-04-30 08:56 | -0.12961 | -78.35732 | 7850 ft | 3 kts | 268° |
| 2026-04-30 08:56 | -0.12960 | -78.35712 | 7850 ft | 3 kts | 268° |
| 2026-04-30 08:57 | -0.12960 | -78.35697 | 7850 ft | 3 kts | 265° |
| 2026-04-30 08:57 | -0.12956 | -78.35679 | 7850 ft | 3 kts | 225° |
| 2026-04-30 08:57 | -0.12942 | -78.35672 | 7850 ft | 3 kts | 177° |
| 2026-04-30 08:57 | -0.12925 | -78.35674 | 7850 ft | 1 kts | 177° |
| 2026-04-30 08:58 | -0.12922 | -78.35674 | 7850 ft | 0 kts | 178° |
| 2026-04-30 09:00 | -0.12923 | -78.35674 | 7850 ft | 0 kts | 178° |
| 2026-04-30 09:00 | -0.12932 | -78.35673 | 7850 ft | 3 kts | 178° |
| 2026-04-30 09:01 | -0.12965 | -78.35672 | 7850 ft | 6 kts | 178° |
| 2026-04-30 09:01 | -0.13020 | -78.35670 | 7851 ft | 9 kts | 178° |
| 2026-04-30 09:01 | -0.13087 | -78.35667 | 7855 ft | 10 kts | 178° |
| 2026-04-30 09:01 | -0.13155 | -78.35665 | 7860 ft | 10 kts | 177° |
| 2026-04-30 09:02 | -0.13296 | -78.35657 | 7865 ft | 12 kts | 176° |
| 2026-04-30 09:02 | -0.13382 | -78.35652 | 7867 ft | 13 kts | 178° |
| 2026-04-30 09:02 | -0.13479 | -78.35648 | 7873 ft | 14 kts | 178° |
| 2026-04-30 09:03 | -0.13567 | -78.35621 | 7881 ft | 13 kts | 127° |
| 2026-04-30 09:03 | -0.13617 | -78.35566 | 7890 ft | 11 kts | 172° |
| 2026-04-30 09:03 | -0.13691 | -78.35561 | 7895 ft | 11 kts | 178° |
| 2026-04-30 09:03 | -0.13765 | -78.35558 | 7898 ft | 11 kts | 178° |
| 2026-04-30 09:04 | -0.13840 | -78.35555 | 7899 ft | 11 kts | 178° |
| 2026-04-30 09:04 | -0.13915 | -78.35552 | 7901 ft | 12 kts | 178° |
| 2026-04-30 09:04 | -0.14007 | -78.35548 | 7911 ft | 14 kts | 177° |
| 2026-04-30 09:04 | -0.14112 | -78.35542 | 7920 ft | 15 kts | 177° |
| 2026-04-30 09:05 | -0.14219 | -78.35531 | 7918 ft | 16 kts | 159° |
| 2026-04-30 09:05 | -0.14251 | -78.35426 | 7919 ft | 18 kts | 81° |
| 2026-04-30 09:05 | -0.14230 | -78.35372 | 7921 ft | 7 kts | 26° |
| 2026-04-30 09:05 | -0.14148 | -78.35372 | 7918 ft | 24 kts | 358° |
| 2026-04-30 09:06 | -0.13725 | -78.35390 | 7899 ft | 99 kts | 358° |
| 2026-04-30 09:06 | -0.12789 | -78.35429 | 7866 ft | 169 kts | 358° |
| 2026-04-30 09:06 | -0.11451 | -78.35498 | 8018 ft | 203 kts | 359° |
| 2026-04-30 09:06 | -0.10039 | -78.35571 | 8655 ft | 205 kts | 359° |
| 2026-04-30 09:07 | -0.08579 | -78.35627 | 9124 ft | 217 kts | 359° |
| 2026-04-30 09:07 | -0.06982 | -78.35673 | 9350 ft | 240 kts | 359° |
| 2026-04-30 09:07 | -0.05203 | -78.35732 | 9481 ft | 269 kts | 359° |
| 2026-04-30 09:07 | -0.03311 | -78.35801 | 10110 ft | 277 kts | 358° |
| 2026-04-30 09:08 | -0.01288 | -78.35922 | 10375 ft | 300 kts | 356° |
| 2026-04-30 09:08 | 0.00763 | -78.36031 | 11178 ft | 300 kts | 359° |
| 2026-04-30 09:08 | 0.02865 | -78.36116 | 11942 ft | 305 kts | 359° |
| 2026-04-30 09:08 | 0.04998 | -78.36221 | 12763 ft | 308 kts | 359° |
| 2026-04-30 09:09 | 0.07148 | -78.36335 | 13599 ft | 312 kts | 359° |
| 2026-04-30 09:09 | 0.09330 | -78.36452 | 14348 ft | 316 kts | 359° |
| 2026-04-30 09:09 | 0.11548 | -78.36571 | 15052 ft | 321 kts | 359° |
| 2026-04-30 09:09 | 0.13783 | -78.36692 | 15821 ft | 322 kts | 359° |
| 2026-04-30 09:10 | 0.16035 | -78.36810 | 16567 ft | 324 kts | 0° |
| 2026-04-30 09:10 | 0.18250 | -78.36510 | 17127 ft | 325 kts | 25° |
| 2026-04-30 09:10 | 0.20108 | -78.35250 | 17767 ft | 326 kts | 49° |
| 2026-04-30 09:10 | 0.21380 | -78.33375 | 18402 ft | 331 kts | 67° |
| 2026-04-30 09:11 | 0.21931 | -78.31932 | 18501 ft | 341 kts | 68° |
| 2026-04-30 09:11 | 0.23266 | -78.29926 | 18586 ft | 361 kts | 43° |
| 2026-04-30 09:11 | 0.25340 | -78.28390 | 18739 ft | 382 kts | 34° |
| 2026-04-30 09:11 | 0.27617 | -78.26893 | 18874 ft | 402 kts | 34° |
| 2026-04-30 09:12 | 0.29981 | -78.25308 | 19111 ft | 415 kts | 35° |
| 2026-04-30 09:12 | 0.32384 | -78.23651 | 19547 ft | 424 kts | 36° |
| 2026-04-30 09:12 | 0.34811 | -78.21939 | 20077 ft | 429 kts | 36° |
| 2026-04-30 09:12 | 0.37247 | -78.20199 | 20657 ft | 432 kts | 36° |
| 2026-04-30 09:13 | 0.39688 | -78.18445 | 21350 ft | 432 kts | 37° |
| 2026-04-30 09:13 | 0.42135 | -78.16683 | 21951 ft | 435 kts | 37° |
| 2026-04-30 09:13 | 0.44601 | -78.14910 | 22546 ft | 437 kts | 38° |
| 2026-04-30 09:13 | 0.47077 | -78.13131 | 23046 ft | 442 kts | 37° |
| 2026-04-30 09:14 | 0.49581 | -78.11331 | 23580 ft | 445 kts | 38° |
| 2026-04-30 09:14 | 0.52097 | -78.09502 | 24030 ft | 449 kts | 37° |
| 2026-04-30 09:14 | 0.54611 | -78.07641 | 24485 ft | 451 kts | 39° |
| 2026-04-30 09:14 | 0.57135 | -78.05757 | 24903 ft | 455 kts | 38° |
| 2026-04-30 09:15 | 0.59678 | -78.03859 | 25348 ft | 458 kts | 37° |
| 2026-04-30 09:15 | 0.62247 | -78.01947 | 25645 ft | 463 kts | 38° |
| 2026-04-30 09:15 | 0.64844 | -78.00016 | 25977 ft | 468 kts | 37° |
| 2026-04-30 09:15 | 0.67475 | -77.98063 | 26295 ft | 474 kts | 37° |
| 2026-04-30 09:16 | 0.70124 | -77.96098 | 26745 ft | 475 kts | 37° |
| 2026-04-30 09:16 | 0.72783 | -77.94126 | 27222 ft | 477 kts | 37° |
| 2026-04-30 09:16 | 0.75452 | -77.92145 | 27596 ft | 480 kts | 37° |
| 2026-04-30 09:16 | 0.78149 | -77.90144 | 27967 ft | 484 kts | 37° |
| 2026-04-30 09:17 | 0.80867 | -77.88159 | 28409 ft | 485 kts | 34° |
| 2026-04-30 09:17 | 0.83748 | -77.86376 | 28779 ft | 488 kts | 30° |
| 2026-04-30 09:17 | 0.86718 | -77.84700 | 29127 ft | 492 kts | 29° |
| 2026-04-30 09:17 | 0.89714 | -77.83028 | 29455 ft | 495 kts | 28° |
| 2026-04-30 09:18 | 0.92733 | -77.81344 | 29820 ft | 498 kts | 28° |
| 2026-04-30 09:18 | 0.95759 | -77.79648 | 30366 ft | 500 kts | 29° |
| 2026-04-30 09:18 | 0.98797 | -77.77935 | 30657 ft | 502 kts | 28° |
| 2026-04-30 09:18 | 1.01845 | -77.76209 | 30931 ft | 505 kts | 29° |
| 2026-04-30 09:19 | 1.04906 | -77.74471 | 31180 ft | 508 kts | 29° |
| 2026-04-30 09:19 | 1.07973 | -77.72727 | 31520 ft | 508 kts | 29° |
| 2026-04-30 09:19 | 1.11012 | -77.70998 | 31821 ft | 510 kts | 29° |
| 2026-04-30 09:19 | 1.14091 | -77.69247 | 32254 ft | 508 kts | 29° |
| 2026-04-30 09:20 | 1.17165 | -77.67499 | 32596 ft | 509 kts | 29° |
| 2026-04-30 09:20 | 1.20246 | -77.65747 | 32846 ft | 511 kts | 29° |
| 2026-04-30 09:20 | 1.23345 | -77.63986 | 33162 ft | 513 kts | 29° |
| 2026-04-30 09:20 | 1.26446 | -77.62223 | 33530 ft | 513 kts | 29° |
| 2026-04-30 09:21 | 1.29550 | -77.60459 | 33909 ft | 514 kts | 29° |
| 2026-04-30 09:21 | 1.32659 | -77.58692 | 34260 ft | 514 kts | 29° |
| 2026-04-30 09:21 | 1.35766 | -77.56926 | 34623 ft | 513 kts | 28° |
| 2026-04-30 09:21 | 1.38861 | -77.55166 | 35089 ft | 510 kts | 28° |
| 2026-04-30 09:22 | 1.41934 | -77.53418 | 35483 ft | 507 kts | 28° |
| 2026-04-30 09:22 | 1.44996 | -77.51678 | 35904 ft | 506 kts | 28° |
| 2026-04-30 09:22 | 1.48058 | -77.49938 | 36049 ft | 509 kts | 28° |
| 2026-04-30 09:22 | 1.51145 | -77.48184 | 35957 ft | 510 kts | 28° |
| 2026-04-30 09:23 | 1.57284 | -77.44694 | 35958 ft | 504 kts | 28° |
| 2026-04-30 09:23 | 1.63365 | -77.41235 | 35978 ft | 503 kts | 28° |
| 2026-04-30 09:24 | 1.69438 | -77.37781 | 35941 ft | 502 kts | 28° |
| 2026-04-30 09:24 | 1.75517 | -77.34325 | 35935 ft | 503 kts | 28° |
| 2026-04-30 09:25 | 1.81605 | -77.30865 | 35924 ft | 504 kts | 28° |
| 2026-04-30 09:25 | 1.87699 | -77.27399 | 35898 ft | 504 kts | 27° |
| 2026-04-30 09:26 | 1.93803 | -77.23926 | 35905 ft | 505 kts | 27° |
| 2026-04-30 09:26 | 1.99914 | -77.20450 | 35918 ft | 506 kts | 27° |
| 2026-04-30 09:27 | 2.06035 | -77.16968 | 35901 ft | 506 kts | 27° |
| 2026-04-30 09:27 | 2.12159 | -77.13483 | 35899 ft | 507 kts | 27° |
| 2026-04-30 09:28 | 2.18284 | -77.09998 | 35918 ft | 507 kts | 27° |
| 2026-04-30 09:28 | 2.24411 | -77.06513 | 35908 ft | 507 kts | 27° |
| 2026-04-30 09:29 | 2.30504 | -77.03045 | 35929 ft | 507 kts | 27° |
| 2026-04-30 09:29 | 2.36680 | -76.99528 | 35939 ft | 508 kts | 27° |
| 2026-04-30 09:30 | 2.42789 | -76.96053 | 35902 ft | 509 kts | 27° |
| 2026-04-30 09:30 | 2.48931 | -76.92555 | 35938 ft | 508 kts | 27° |
| 2026-04-30 09:31 | 2.55066 | -76.89062 | 35934 ft | 507 kts | 27° |
| 2026-04-30 09:31 | 2.61203 | -76.85567 | 35961 ft | 507 kts | 27° |
| 2026-04-30 09:32 | 2.67329 | -76.82079 | 35973 ft | 506 kts | 27° |
| 2026-04-30 09:32 | 2.73456 | -76.78590 | 35935 ft | 507 kts | 27° |
| 2026-04-30 09:33 | 2.79596 | -76.75093 | 35939 ft | 508 kts | 27° |
| 2026-04-30 09:33 | 2.85743 | -76.71591 | 35936 ft | 509 kts | 27° |
| 2026-04-30 09:34 | 2.91901 | -76.68082 | 35932 ft | 509 kts | 27° |
| 2026-04-30 09:34 | 2.98065 | -76.64570 | 35933 ft | 509 kts | 27° |
| 2026-04-30 09:35 | 3.04222 | -76.61061 | 35935 ft | 509 kts | 27° |
| 2026-04-30 09:35 | 3.10375 | -76.57554 | 35921 ft | 509 kts | 27° |
| 2026-04-30 09:36 | 3.16520 | -76.54050 | 35906 ft | 508 kts | 27° |
| 2026-04-30 09:36 | 3.22653 | -76.50553 | 35920 ft | 508 kts | 27° |
| 2026-04-30 09:37 | 3.28792 | -76.47052 | 35925 ft | 508 kts | 27° |
| 2026-04-30 09:37 | 3.34927 | -76.43552 | 35909 ft | 508 kts | 27° |
| 2026-04-30 09:38 | 3.41126 | -76.40174 | 35902 ft | 506 kts | 22° |
| 2026-04-30 09:38 | 3.47667 | -76.37610 | 35927 ft | 505 kts | 18° |
| 2026-04-30 09:39 | 3.54254 | -76.35165 | 35933 ft | 505 kts | 18° |
| 2026-04-30 09:39 | 3.60793 | -76.32707 | 35947 ft | 506 kts | 18° |
| 2026-04-30 09:40 | 3.67377 | -76.30200 | 35945 ft | 506 kts | 18° |
| 2026-04-30 09:40 | 3.73957 | -76.27684 | 35943 ft | 506 kts | 18° |
| 2026-04-30 09:41 | 3.80533 | -76.25170 | 35941 ft | 506 kts | 18° |
| 2026-04-30 09:41 | 3.87109 | -76.22657 | 35922 ft | 506 kts | 18° |
| 2026-04-30 09:42 | 3.93673 | -76.20149 | 35974 ft | 505 kts | 18° |
| 2026-04-30 09:42 | 4.00235 | -76.17640 | 35954 ft | 504 kts | 18° |
| 2026-04-30 09:43 | 4.06785 | -76.15140 | 35958 ft | 504 kts | 18° |
| 2026-04-30 09:43 | 4.13333 | -76.12638 | 35943 ft | 504 kts | 18° |
| 2026-04-30 09:44 | 4.19873 | -76.10137 | 35931 ft | 503 kts | 18° |
| 2026-04-30 09:44 | 4.26422 | -76.07632 | 35918 ft | 503 kts | 18° |
| 2026-04-30 09:45 | 4.32964 | -76.05130 | 35929 ft | 503 kts | 18° |
| 2026-04-30 09:45 | 4.39506 | -76.02628 | 35907 ft | 503 kts | 18° |
| 2026-04-30 09:46 | 4.46043 | -76.00126 | 35908 ft | 503 kts | 18° |
| 2026-04-30 09:46 | 4.52596 | -75.97620 | 35913 ft | 504 kts | 18° |
| 2026-04-30 09:47 | 4.59146 | -75.95113 | 35936 ft | 504 kts | 18° |
| 2026-04-30 09:47 | 4.65708 | -75.92601 | 35953 ft | 505 kts | 18° |
| 2026-04-30 09:48 | 4.72277 | -75.90086 | 35976 ft | 505 kts | 18° |
| 2026-04-30 09:48 | 4.78801 | -75.87587 | 36008 ft | 505 kts | 18° |
| 2026-04-30 09:49 | 4.85372 | -75.85071 | 36004 ft | 506 kts | 18° |
| 2026-04-30 09:49 | 4.91948 | -75.82552 | 36011 ft | 505 kts | 17° |
| 2026-04-30 09:50 | 4.95231 | -75.81294 | 35908 ft | 506 kts | 18° |
| 2026-04-30 09:50 | 4.98515 | -75.80035 | 35962 ft | 505 kts | 18° |
| 2026-04-30 09:50 | 5.05071 | -75.77522 | 36016 ft | 504 kts | 18° |
| 2026-04-30 09:51 | 5.11626 | -75.75009 | 36002 ft | 505 kts | 18° |
| 2026-04-30 09:51 | 5.18198 | -75.72489 | 35990 ft | 506 kts | 18° |